KLIMATOLOGI DAS LIMBOTO HEPUHULAWA

Tanggal Temperature (oC) RH (%) PAN 'A' Kecepatan Angin (KM/hari) Sinar Matahari (%) Hujan Biasa (mm)
Max Min Rata-rata Temp Air Dlm Tangki (oC) Penguapan (mm)
2022-06-30 33.5 22.5 28 96 30.5 2.8 21.3 37.1 1.8
2022-06-29 33.5 24.5 29 96 31 3.2 23.7 34.6 0.2
2022-06-28 33.5 24 28.8 96 31.5 4 28.1 47 0
2022-06-27 34.5 23.5 29 96 31.5 5 27.4 47.8 0
2022-06-26 34.5 24.5 29.5 95 31.5 5 28.1 54.4 0
2022-06-25 34.5 23.5 29 96 31.5 5 26.8 60.1 0
2022-06-24 33 24 28.5 95 31 4 31.7 62.6 0
2022-06-23 33.5 24 28.8 96 30.5 4 26.9 56 8
2022-06-22 34 23.5 28.8 95 31.5 5 28.3 54.4 0
2022-06-21 33 23.5 28.3 94 30 4.5 40.3 47 0
2022-06-20 33 22.5 27.8 95 30.5 5 27 63.4 1
2022-06-19 31.5 23 27.3 92 28 0.6 16.3 25.5 4.6
2022-06-18 33 22.5 27.8 96 29.5 3.4 14.6 33.8 5.4
2022-06-17 33.5 23.5 28.5 92 31.5 4 26.6 56 0
2022-06-16 33 24 28.5 94 31 4 28.3 59.3 0
2022-06-15 33 23 28 95 30.5 3.2 17.4 52 7.2
2022-06-14 33 23 28 94 29 3 17.3 31.4 3
2022-06-13 33 23.5 28.3 95 31 3.1 19.9 49.5 0.6
2022-06-12 35 23.5 29.3 95 30 5 16.8 52.8 26
2022-06-11 35 22.5 28.8 94 31.5 4 21.6 46.2 1
2022-06-10 33 23.5 28.3 92 31 4 28.1 49.5 0
2022-06-09 34 23.5 28.8 92 32 5.2 33.1 65.2 0.2
2022-06-08 33.5 23.5 28.5 94 30.5 3 19.3 47.9 1
2022-06-07 34 23.5 28.8 94 31 3.5 21.6 39.6 1
2022-06-06 34 24 29 93 31 5 32.1 60.2 0
2022-06-05 34 23 28.5 96 30 3.2 20.2 38.8 0.2
2022-06-04 33.5 23.5 28.5 96 30.5 3.2 27.3 49.5 0.2
2022-06-03 35 23 29 93 31 4.4 23.1 53.6 0.4
2022-06-02 34 23 28.5 92 31.5 6 40.5 64.4 0
2022-06-01 34 23 28.5 95 31.5 5 32.6 64.4 0